createdAt,value
2023-02-02T00:06:15.980Z,3581
2023-02-02T00:21:15.994Z,3583
2023-02-02T00:36:15.926Z,3583
2023-02-02T00:51:15.969Z,3583
2023-02-02T01:06:15.902Z,3583
2023-02-02T01:21:20.949Z,3583
2023-02-02T01:36:15.867Z,3581
2023-02-02T01:51:16.012Z,3581
2023-02-02T02:06:15.913Z,3583
2023-02-02T02:21:15.897Z,3578
2023-02-02T02:36:15.824Z,3581
2023-02-02T02:51:15.924Z,3581
2023-02-02T03:06:15.807Z,3578
2023-02-02T03:21:15.832Z,3578
2023-02-02T03:36:15.772Z,3578
2023-02-02T03:51:15.871Z,3578
2023-02-02T04:06:15.797Z,3578
2023-02-02T04:21:15.786Z,3578
2023-02-02T04:36:20.808Z,3575
2023-02-02T04:51:15.815Z,3578
2023-02-02T05:06:16.042Z,3578
2023-02-02T05:21:15.731Z,3578
2023-02-02T05:36:15.708Z,3575
2023-02-02T05:51:15.754Z,3575
2023-02-02T06:06:15.697Z,3575
2023-02-02T06:21:15.670Z,3575
2023-02-02T06:36:15.684Z,3578
2023-02-02T06:51:20.711Z,3575
2023-02-02T07:06:15.722Z,3578
2023-02-02T07:21:15.657Z,3575
2023-02-02T07:36:15.635Z,3578
2023-02-02T07:51:15.709Z,3575
2023-02-02T08:06:15.622Z,3578
2023-02-02T08:21:15.609Z,3581
2023-02-02T08:36:15.589Z,3581
2023-02-02T08:51:15.615Z,3583
2023-02-02T09:06:15.556Z,3583
2023-02-02T09:21:15.587Z,3581
2023-02-02T09:36:15.517Z,3581
2023-02-02T09:51:15.551Z,3581
2023-02-02T10:06:15.517Z,3581
2023-02-02T10:21:15.531Z,3583
2023-02-02T10:36:15.497Z,3588
2023-02-02T10:51:15.530Z,3591
2023-02-02T11:06:15.413Z,3591
2023-02-02T11:21:15.461Z,3593
2023-02-02T11:36:15.368Z,3593
2023-02-02T11:51:15.480Z,3593
2023-02-02T12:06:15.334Z,3593
2023-02-02T12:21:15.344Z,3591
2023-02-02T12:36:15.334Z,3591
2023-02-02T12:51:15.337Z,3591
2023-02-02T13:06:15.282Z,3591
2023-02-02T13:21:15.277Z,3591
2023-02-02T13:36:15.309Z,3588
2023-02-02T13:51:15.273Z,3591
2023-02-02T14:06:15.195Z,3591
2023-02-02T14:21:15.257Z,3593
2023-02-02T14:36:15.189Z,3593
2023-02-02T14:51:15.202Z,3593
2023-02-02T15:06:15.139Z,3593
2023-02-02T15:21:15.142Z,3591
2023-02-02T15:36:15.092Z,3591
2023-02-02T15:51:15.137Z,3593
2023-02-02T16:06:15.079Z,3591
2023-02-02T16:21:15.074Z,3591
2023-02-02T16:36:23.941Z,3588
2023-02-02T16:51:15.047Z,3591
2023-02-02T17:06:15.021Z,3588
2023-02-02T17:21:15.013Z,3588
2023-02-02T17:36:14.989Z,3588
2023-02-02T17:51:14.992Z,3588
2023-02-02T18:06:14.941Z,3588
2023-02-02T18:21:14.956Z,3586
2023-02-02T18:36:14.873Z,3588
2023-02-02T18:51:14.934Z,3588
2023-02-02T19:06:14.870Z,3588
2023-02-02T19:21:14.911Z,3586
2023-02-02T19:36:14.883Z,3586
2023-02-02T19:51:14.845Z,3588
2023-02-02T20:06:14.816Z,3588
2023-02-02T20:21:14.837Z,3588
2023-02-02T20:36:14.775Z,3588
2023-02-02T20:51:14.808Z,3588
2023-02-02T21:06:14.726Z,3586
2023-02-02T21:21:14.953Z,3588
2023-02-02T21:36:14.716Z,3588
2023-02-02T21:51:14.686Z,3586
2023-02-02T22:06:14.688Z,3586
2023-02-02T22:21:14.713Z,3583
2023-02-02T22:36:14.649Z,3583
2023-02-02T22:51:14.673Z,3583
2023-02-02T23:06:14.620Z,3581
2023-02-02T23:21:14.650Z,3578
2023-02-02T23:36:14.648Z,3578
2023-02-02T23:51:14.590Z,3581
